createdAt,value
2018-02-03T00:00:11.137Z,10.90
2018-02-03T00:01:11.133Z,12.70
2018-02-03T00:02:11.129Z,13.60
2018-02-03T00:03:11.131Z,13.70
2018-02-03T00:04:11.130Z,11.50
2018-02-03T00:05:11.124Z,13.40
2018-02-03T00:06:11.120Z,15.40
2018-02-03T00:07:11.125Z,12.20
2018-02-03T00:08:11.130Z,14.10
2018-02-03T00:09:11.117Z,11.60
2018-02-03T00:10:11.196Z,14.90
2018-02-03T00:11:11.799Z,14.00
2018-02-03T00:12:11.113Z,11.90
2018-02-03T00:13:11.103Z,13.00
2018-02-03T00:14:11.103Z,13.10
2018-02-03T00:15:11.111Z,11.00
2018-02-03T00:16:11.106Z,12.50
2018-02-03T00:17:11.103Z,13.00
2018-02-03T00:18:11.114Z,13.10
2018-02-03T00:19:11.104Z,13.60
2018-02-03T00:20:11.101Z,10.80
2018-02-03T00:21:11.415Z,13.60
2018-02-03T00:22:11.100Z,10.70
2018-02-03T00:23:11.097Z,11.50
2018-02-03T00:24:11.091Z,14.70
2018-02-03T00:25:11.094Z,12.20
2018-02-03T00:26:11.084Z,12.60
2018-02-03T00:27:11.088Z,12.80
2018-02-03T00:28:11.683Z,14.20
2018-02-03T00:29:11.086Z,11.10
2018-02-03T00:30:11.082Z,11.60
2018-02-03T00:31:11.074Z,11.60
2018-02-03T00:32:11.082Z,12.70
2018-02-03T00:33:11.088Z,11.40
2018-02-03T00:34:11.081Z,11.80
2018-02-03T00:35:11.094Z,13.20
2018-02-03T00:36:11.074Z,15.10
2018-02-03T00:37:11.072Z,12.20
2018-02-03T00:38:11.059Z,11.90
2018-02-03T00:39:11.066Z,12.40
2018-02-03T00:40:11.062Z,13.10
2018-02-03T00:41:11.682Z,14.70
2018-02-03T00:42:11.055Z,10.00
2018-02-03T00:43:11.064Z,12.90
2018-02-03T00:44:11.058Z,11.00
2018-02-03T00:45:11.131Z,10.00
2018-02-03T00:46:11.056Z,12.50
2018-02-03T00:47:11.050Z,13.20
2018-02-03T00:48:11.054Z,14.30
2018-02-03T00:49:11.056Z,13.60
2018-02-03T00:50:11.052Z,11.20
2018-02-03T00:51:11.045Z,12.50
2018-02-03T00:52:11.031Z,10.90
2018-02-03T00:53:11.028Z,11.20
2018-02-03T00:54:11.123Z,10.50
2018-02-03T00:55:11.032Z,11.00
2018-02-03T00:56:11.032Z,16.40
2018-02-03T00:57:11.037Z,12.70
2018-02-03T00:58:11.036Z,12.60
2018-02-03T00:59:11.029Z,13.20
2018-02-03T01:00:11.030Z,12.50
2018-02-03T01:01:11.026Z,12.30
2018-02-03T01:02:11.031Z,11.90
2018-02-03T01:03:11.031Z,12.40
2018-02-03T01:04:11.028Z,15.10
2018-02-03T01:05:11.013Z,11.30
2018-02-03T01:06:11.010Z,11.40
2018-02-03T01:07:11.017Z,12.20
2018-02-03T01:08:11.026Z,9.30
2018-02-03T01:09:11.012Z,11.10
2018-02-03T01:10:11.011Z,14.30
2018-02-03T01:11:11.038Z,13.20
2018-02-03T01:12:11.007Z,11.40
2018-02-03T01:13:11.006Z,15.20
2018-02-03T01:14:11.228Z,9.50
2018-02-03T01:15:11.010Z,14.40
2018-02-03T01:16:11.002Z,13.40
2018-02-03T01:17:11.002Z,10.90
2018-02-03T01:18:10.993Z,13.50
2018-02-03T01:19:10.991Z,14.80
2018-02-03T01:20:12.390Z,12.00
2018-02-03T01:21:11.424Z,10.90
2018-02-03T01:22:10.989Z,14.00
2018-02-03T01:23:10.998Z,16.80
2018-02-03T01:24:11.024Z,13.50
2018-02-03T01:25:11.021Z,14.30
2018-02-03T01:26:10.985Z,11.90
2018-02-03T01:27:10.997Z,14.60
2018-02-03T01:28:10.978Z,11.60
2018-02-03T01:29:10.986Z,12.00
2018-02-03T01:30:10.974Z,13.70
2018-02-03T01:31:10.977Z,13.40
2018-02-03T01:32:11.008Z,12.00
2018-02-03T01:33:10.970Z,14.30
2018-02-03T01:34:10.973Z,12.80
2018-02-03T01:35:10.971Z,11.80
2018-02-03T01:36:10.968Z,13.30
2018-02-03T01:37:12.955Z,11.90
2018-02-03T01:38:10.967Z,13.20
2018-02-03T01:39:10.964Z,14.60
2018-02-03T01:40:10.962Z,13.50
2018-02-03T01:41:11.308Z,13.30
2018-02-03T01:42:10.950Z,14.70
2018-02-03T01:43:10.954Z,16.00
2018-02-03T01:44:10.949Z,13.10
2018-02-03T01:45:10.943Z,12.50
2018-02-03T01:46:10.956Z,11.60
2018-02-03T01:47:10.947Z,15.30
2018-02-03T01:48:10.942Z,13.20
2018-02-03T01:49:10.937Z,14.70
2018-02-03T01:50:10.940Z,13.20
2018-02-03T01:51:10.938Z,10.90
2018-02-03T01:52:10.935Z,13.10
2018-02-03T01:53:10.936Z,17.70
2018-02-03T01:54:10.935Z,13.60
2018-02-03T01:55:10.931Z,12.10
2018-02-03T01:56:10.919Z,13.10
2018-02-03T01:57:10.931Z,11.80
2018-02-03T01:58:10.930Z,10.70
2018-02-03T01:59:12.022Z,11.90
2018-02-03T02:00:10.917Z,12.90
2018-02-03T02:01:10.920Z,11.10
2018-02-03T02:02:10.918Z,15.00
2018-02-03T02:03:10.916Z,11.30
2018-02-03T02:04:10.919Z,15.60
2018-02-03T02:05:10.914Z,12.30
2018-02-03T02:06:10.942Z,13.80
2018-02-03T02:07:10.904Z,10.30
2018-02-03T02:08:10.903Z,12.10
2018-02-03T02:09:10.902Z,12.00
2018-02-03T02:10:10.887Z,10.40
2018-02-03T02:11:10.891Z,12.10
2018-02-03T02:12:11.024Z,11.60
2018-02-03T02:13:10.910Z,11.30
2018-02-03T02:14:10.879Z,12.90
2018-02-03T02:15:10.893Z,15.00
2018-02-03T02:16:10.887Z,14.30
2018-02-03T02:17:10.882Z,10.30
2018-02-03T02:18:10.883Z,14.10
2018-02-03T02:19:10.883Z,13.70
2018-02-03T02:20:10.876Z,11.40
2018-02-03T02:21:10.881Z,10.70
2018-02-03T02:22:10.879Z,13.20
2018-02-03T02:23:10.876Z,12.80
2018-02-03T02:24:10.881Z,12.10
2018-02-03T02:25:11.692Z,12.10
2018-02-03T02:26:10.867Z,12.20
2018-02-03T02:27:10.872Z,13.00
2018-02-03T02:28:10.886Z,10.50
2018-02-03T02:29:10.859Z,16.80
2018-02-03T02:30:10.852Z,11.80
2018-02-03T02:31:10.848Z,8.80
2018-02-03T02:32:10.854Z,11.80
2018-02-03T02:33:10.840Z,12.80
2018-02-03T02:34:10.854Z,11.90
2018-02-03T02:35:10.845Z,12.30
2018-02-03T02:36:10.846Z,12.90
2018-02-03T02:37:10.849Z,11.70
2018-02-03T02:38:10.841Z,12.70
2018-02-03T02:39:10.846Z,11.80
2018-02-03T02:40:10.836Z,11.60
2018-02-03T02:41:10.850Z,13.60
2018-02-03T02:42:10.836Z,11.40
2018-02-03T02:43:10.827Z,13.70
2018-02-03T02:44:10.835Z,11.80
2018-02-03T02:45:10.824Z,12.80
2018-02-03T02:46:10.840Z,12.00
2018-02-03T02:47:10.832Z,11.90
2018-02-03T02:48:10.825Z,14.80
2018-02-03T02:49:10.817Z,13.70
2018-02-03T02:50:10.819Z,13.00
2018-02-03T02:51:10.817Z,11.90
2018-02-03T02:52:10.802Z,14.70
2018-02-03T02:53:10.806Z,12.50
2018-02-03T02:54:10.810Z,15.60
2018-02-03T02:55:10.806Z,14.00
2018-02-03T02:56:10.799Z,14.60
2018-02-03T02:57:10.806Z,13.40
2018-02-03T02:58:10.798Z,11.90
2018-02-03T02:59:10.817Z,14.00
2018-02-03T03:00:10.793Z,12.70
2018-02-03T03:01:10.788Z,14.90
2018-02-03T03:02:10.798Z,13.30
2018-02-03T03:03:10.788Z,12.30
2018-02-03T03:04:10.784Z,14.50
2018-02-03T03:05:10.778Z,14.30
2018-02-03T03:06:10.783Z,19.20
2018-02-03T03:07:10.777Z,15.40
2018-02-03T03:08:10.780Z,12.20
2018-02-03T03:09:10.886Z,14.20
2018-02-03T03:10:10.772Z,12.50
2018-02-03T03:11:10.783Z,14.40
2018-02-03T03:12:10.775Z,14.70
2018-02-03T03:13:10.766Z,13.80
2018-02-03T03:14:10.758Z,14.70
2018-02-03T03:15:10.764Z,15.90
2018-02-03T03:16:10.765Z,13.90
2018-02-03T03:17:10.763Z,12.60
2018-02-03T03:18:10.766Z,12.80
2018-02-03T03:19:10.761Z,13.80
2018-02-03T03:20:10.757Z,13.70
2018-02-03T03:21:10.755Z,13.30
2018-02-03T03:22:10.748Z,16.20
2018-02-03T03:23:10.753Z,15.40
2018-02-03T03:24:10.747Z,11.70
2018-02-03T03:25:10.754Z,13.70
2018-02-03T03:26:10.748Z,14.50
2018-02-03T03:27:10.747Z,16.90
2018-02-03T03:28:10.733Z,15.40
2018-02-03T03:29:10.737Z,14.20
2018-02-03T03:30:10.733Z,15.70
2018-02-03T03:31:10.737Z,15.60
2018-02-03T03:32:10.726Z,12.80
2018-02-03T03:33:10.733Z,12.40
2018-02-03T03:34:10.722Z,13.40
2018-02-03T03:35:10.726Z,16.90
2018-02-03T03:36:10.722Z,12.60
2018-02-03T03:37:10.720Z,12.80
2018-02-03T03:38:10.721Z,11.10
2018-02-03T03:39:10.722Z,14.40
2018-02-03T03:40:10.717Z,13.70
2018-02-03T03:41:10.718Z,12.80
2018-02-03T03:42:10.714Z,15.20
2018-02-03T03:43:10.703Z,13.80
2018-02-03T03:44:10.705Z,13.40
2018-02-03T03:45:10.829Z,13.00
2018-02-03T03:46:10.708Z,14.50
2018-02-03T03:47:10.694Z,16.10
2018-02-03T03:48:10.713Z,14.00
2018-02-03T03:49:10.711Z,15.90
2018-02-03T03:50:10.698Z,15.00
2018-02-03T03:51:10.690Z,14.20
2018-02-03T03:52:10.687Z,15.50
2018-02-03T03:53:10.685Z,14.00
2018-02-03T03:54:10.703Z,15.00
2018-02-03T03:55:10.681Z,16.40
2018-02-03T03:56:10.720Z,15.30
2018-02-03T03:57:10.684Z,14.70
2018-02-03T03:58:10.671Z,15.10
2018-02-03T03:59:10.684Z,15.70
2018-02-03T04:00:10.686Z,14.80
2018-02-03T04:01:10.693Z,16.20
2018-02-03T04:02:10.678Z,13.80
2018-02-03T04:03:11.212Z,15.30
2018-02-03T04:04:10.667Z,14.30
2018-02-03T04:05:10.659Z,13.60
2018-02-03T04:06:10.682Z,13.80
2018-02-03T04:07:10.682Z,14.20
2018-02-03T04:08:10.666Z,15.70
2018-02-03T04:09:10.658Z,13.90
2018-02-03T04:10:10.660Z,13.70
2018-02-03T04:11:10.648Z,12.60
2018-02-03T04:12:10.646Z,15.60
2018-02-03T04:13:10.649Z,12.50
2018-02-03T04:14:10.648Z,13.20
2018-02-03T04:15:10.650Z,12.10
2018-02-03T04:16:10.653Z,12.20
2018-02-03T04:17:10.643Z,14.40
2018-02-03T04:18:10.642Z,12.60
2018-02-03T04:19:11.212Z,13.00
2018-02-03T04:20:10.630Z,13.40
2018-02-03T04:21:10.642Z,14.00
2018-02-03T04:22:10.631Z,16.10
2018-02-03T04:23:10.630Z,13.40
2018-02-03T04:24:10.635Z,13.90
2018-02-03T04:25:10.634Z,12.90
2018-02-03T04:26:10.626Z,15.90
2018-02-03T04:27:10.626Z,14.70
2018-02-03T04:28:10.620Z,15.20
2018-02-03T04:29:10.619Z,14.60
2018-02-03T04:30:10.653Z,14.00
2018-02-03T04:31:10.641Z,13.10
2018-02-03T04:32:10.628Z,11.30
2018-02-03T04:33:11.213Z,14.40
2018-02-03T04:34:10.611Z,14.10
2018-02-03T04:35:10.598Z,12.70
2018-02-03T04:36:10.601Z,11.30
2018-02-03T04:37:10.600Z,13.30
2018-02-03T04:38:10.602Z,12.90
2018-02-03T04:39:10.595Z,10.70
2018-02-03T04:40:10.598Z,13.90
2018-02-03T04:41:10.594Z,12.80
2018-02-03T04:42:10.587Z,9.90
2018-02-03T04:43:10.593Z,16.00
2018-02-03T04:44:10.585Z,17.00
2018-02-03T04:45:10.585Z,10.90
2018-02-03T04:46:10.591Z,11.10
2018-02-03T04:47:10.583Z,11.50
2018-02-03T04:48:10.584Z,9.70
2018-02-03T04:49:10.578Z,10.50
2018-02-03T04:50:10.581Z,13.70
2018-02-03T04:51:10.581Z,11.80
2018-02-03T04:52:10.578Z,11.90
2018-02-03T04:53:10.569Z,12.00
2018-02-03T04:54:10.582Z,10.80
2018-02-03T04:55:10.596Z,15.30
2018-02-03T04:56:10.561Z,13.00
2018-02-03T04:57:10.568Z,13.60
2018-02-03T04:58:10.564Z,16.50
2018-02-03T04:59:10.575Z,10.50
2018-02-03T05:00:10.562Z,13.00
2018-02-03T05:01:10.555Z,13.10
2018-02-03T05:02:10.570Z,13.50
2018-02-03T05:03:10.563Z,15.00
2018-02-03T05:04:10.553Z,14.50
2018-02-03T05:05:10.552Z,13.20
2018-02-03T05:06:10.551Z,12.30
2018-02-03T05:07:10.547Z,11.30
2018-02-03T05:08:10.539Z,12.90
2018-02-03T05:09:10.548Z,9.70
2018-02-03T05:10:10.566Z,12.20
2018-02-03T05:11:10.537Z,13.50
2018-02-03T05:12:10.543Z,15.30
2018-02-03T05:13:10.586Z,13.50
2018-02-03T05:14:10.611Z,12.10
2018-02-03T05:15:10.533Z,14.20
2018-02-03T05:16:11.219Z,11.70
2018-02-03T05:17:10.535Z,11.30
2018-02-03T05:18:10.525Z,14.10
2018-02-03T05:19:10.624Z,12.00
2018-02-03T05:20:10.521Z,11.00
2018-02-03T05:21:10.514Z,11.80
2018-02-03T05:22:10.516Z,11.10
2018-02-03T05:23:10.520Z,14.70
2018-02-03T05:24:10.516Z,14.80
2018-02-03T05:25:10.514Z,13.80
2018-02-03T05:26:10.512Z,13.30
2018-02-03T05:27:10.511Z,14.30
2018-02-03T05:28:10.511Z,14.70
2018-02-03T05:29:10.502Z,9.30
2018-02-03T05:30:10.503Z,13.50
2018-02-03T05:31:10.502Z,15.40
2018-02-03T05:32:10.514Z,13.40
2018-02-03T05:33:10.496Z,15.60
2018-02-03T05:34:10.497Z,15.00
2018-02-03T05:35:10.495Z,12.10
2018-02-03T05:36:10.492Z,16.90
2018-02-03T05:37:10.493Z,14.80
2018-02-03T05:38:10.491Z,13.40
2018-02-03T05:39:10.484Z,11.60
2018-02-03T05:40:10.483Z,10.20
2018-02-03T05:41:10.485Z,11.30
2018-02-03T05:42:10.510Z,12.50
2018-02-03T05:43:10.486Z,12.60
2018-02-03T05:44:10.466Z,15.00
2018-02-03T05:45:10.486Z,14.60
2018-02-03T05:46:10.468Z,14.20
2018-02-03T05:47:10.474Z,13.80
2018-02-03T05:48:10.470Z,16.80
2018-02-03T05:49:10.460Z,14.20
2018-02-03T05:50:10.469Z,11.60
2018-02-03T05:51:10.457Z,15.80
2018-02-03T05:52:10.467Z,12.40
2018-02-03T05:53:10.452Z,9.60
2018-02-03T05:54:10.471Z,13.60
2018-02-03T05:55:10.448Z,13.70
2018-02-03T05:56:10.457Z,14.80
2018-02-03T05:57:10.446Z,12.70
2018-02-03T05:58:10.448Z,16.80
2018-02-03T05:59:10.448Z,16.10
2018-02-03T06:00:10.457Z,11.50
2018-02-03T06:01:10.439Z,14.00
2018-02-03T06:02:10.436Z,16.20
2018-02-03T06:03:10.444Z,17.50
2018-02-03T06:04:10.430Z,17.00
2018-02-03T06:05:10.435Z,12.30
2018-02-03T06:06:10.433Z,13.20
2018-02-03T06:07:10.436Z,14.50
2018-02-03T06:08:10.428Z,15.20
2018-02-03T06:09:10.421Z,13.90
2018-02-03T06:10:10.474Z,14.90
2018-02-03T06:11:10.422Z,14.40
2018-02-03T06:12:10.418Z,14.60
2018-02-03T06:13:10.426Z,10.30
2018-02-03T06:14:10.417Z,13.90
2018-02-03T06:15:10.500Z,15.60
2018-02-03T06:16:10.411Z,16.20
2018-02-03T06:17:10.413Z,12.00
2018-02-03T06:18:10.402Z,14.70
2018-02-03T06:19:10.402Z,14.80
2018-02-03T06:20:10.397Z,14.40
2018-02-03T06:21:10.401Z,17.00
2018-02-03T06:22:10.410Z,15.60
2018-02-03T06:23:10.400Z,16.10
2018-02-03T06:24:10.395Z,16.00
2018-02-03T06:25:10.413Z,13.40
2018-02-03T06:26:10.388Z,19.40
2018-02-03T06:27:10.394Z,19.40
2018-02-03T06:28:10.390Z,15.10
2018-02-03T06:29:10.408Z,18.50
2018-02-03T06:30:10.475Z,17.70
2018-02-03T06:31:10.377Z,16.20
2018-02-03T06:32:10.379Z,17.50
2018-02-03T06:33:10.375Z,12.80
2018-02-03T06:34:10.375Z,16.10
2018-02-03T06:35:10.376Z,14.70
2018-02-03T06:36:10.367Z,19.50
2018-02-03T06:37:10.362Z,19.20
2018-02-03T06:38:10.377Z,20.30
2018-02-03T06:39:10.374Z,21.30
2018-02-03T06:40:10.362Z,16.20
2018-02-03T06:41:10.363Z,14.90
2018-02-03T06:42:10.362Z,17.70
2018-02-03T06:43:10.352Z,19.60
2018-02-03T06:44:11.236Z,19.40
2018-02-03T06:45:10.346Z,18.00
2018-02-03T06:46:10.345Z,17.60
2018-02-03T06:47:10.353Z,17.10
2018-02-03T06:48:10.349Z,19.20
2018-02-03T06:49:10.350Z,19.90
2018-02-03T06:50:10.366Z,19.00
2018-02-03T06:51:10.342Z,17.70
2018-02-03T06:52:10.348Z,18.60
2018-02-03T06:53:10.340Z,15.70
2018-02-03T06:54:10.331Z,15.50
2018-02-03T06:55:10.341Z,15.90
2018-02-03T06:56:10.335Z,16.80
2018-02-03T06:57:10.332Z,18.70
2018-02-03T06:58:10.320Z,18.30
2018-02-03T06:59:10.321Z,18.50
2018-02-03T07:00:10.318Z,17.70
2018-02-03T07:01:10.318Z,19.80
2018-02-03T07:02:10.321Z,19.50
2018-02-03T07:03:10.349Z,15.80
2018-02-03T07:04:10.304Z,20.20
2018-02-03T07:05:10.314Z,18.30
2018-02-03T07:06:10.312Z,15.00
2018-02-03T07:07:10.313Z,19.60
2018-02-03T07:08:10.312Z,16.20
2018-02-03T07:09:10.298Z,15.90
2018-02-03T07:10:10.302Z,17.50
2018-02-03T07:11:10.295Z,18.50
2018-02-03T07:12:10.288Z,17.60
2018-02-03T07:13:10.321Z,16.60
2018-02-03T07:14:10.289Z,17.40
2018-02-03T07:15:10.289Z,15.80
2018-02-03T07:16:10.291Z,17.50
2018-02-03T07:17:10.294Z,22.10
2018-02-03T07:18:10.288Z,16.50
2018-02-03T07:19:10.285Z,19.00
2018-02-03T07:20:10.284Z,18.50
2018-02-03T07:21:10.279Z,16.50
2018-02-03T07:22:10.280Z,17.80
2018-02-03T07:23:10.265Z,18.50
2018-02-03T07:24:10.398Z,15.90
2018-02-03T07:25:10.343Z,16.40
2018-02-03T07:26:10.286Z,19.10
2018-02-03T07:27:10.266Z,13.70
2018-02-03T07:28:10.269Z,19.20
2018-02-03T07:29:10.273Z,21.50
2018-02-03T07:30:10.271Z,19.00
2018-02-03T07:31:10.315Z,16.40
2018-02-03T07:32:10.251Z,15.00
2018-02-03T07:33:10.256Z,19.60
2018-02-03T07:34:10.266Z,15.10
2018-02-03T07:35:10.283Z,21.80
2018-02-03T07:36:10.250Z,19.60
2018-02-03T07:37:10.243Z,20.20
2018-02-03T07:38:10.292Z,19.30
2018-02-03T07:39:10.250Z,19.70
2018-02-03T07:40:10.254Z,17.90
2018-02-03T07:41:10.741Z,17.30
2018-02-03T07:42:10.237Z,21.70
2018-02-03T07:43:10.255Z,21.40
2018-02-03T07:44:10.237Z,20.00
2018-02-03T07:45:10.504Z,17.80
2018-02-03T07:46:10.222Z,15.90
2018-02-03T07:47:10.230Z,16.90
2018-02-03T07:48:10.216Z,18.00
2018-02-03T07:49:10.214Z,16.00
2018-02-03T07:50:10.232Z,19.90
2018-02-03T07:51:11.250Z,18.80
2018-02-03T07:52:10.213Z,19.40
2018-02-03T07:53:10.215Z,16.60
2018-02-03T07:54:10.219Z,20.60
2018-02-03T07:55:10.222Z,17.30
2018-02-03T07:56:10.207Z,22.40
2018-02-03T07:57:10.224Z,17.40
2018-02-03T07:58:10.283Z,23.70
2018-02-03T07:59:10.208Z,20.90
2018-02-03T08:00:10.196Z,18.50
2018-02-03T08:01:10.212Z,15.70
2018-02-03T08:02:10.199Z,19.30
2018-02-03T08:03:10.215Z,20.00
2018-02-03T08:04:10.209Z,17.50
2018-02-03T08:05:10.257Z,21.00
2018-02-03T08:06:10.301Z,18.70
2018-02-03T08:07:10.187Z,19.50
2018-02-03T08:08:10.192Z,19.30
2018-02-03T08:09:10.187Z,18.50
2018-02-03T08:10:10.746Z,19.60
2018-02-03T08:11:10.181Z,15.40
2018-02-03T08:12:10.187Z,22.40
2018-02-03T08:13:10.166Z,19.00
2018-02-03T08:14:10.174Z,20.10
2018-02-03T08:15:10.170Z,17.60
2018-02-03T08:16:10.181Z,17.00
2018-02-03T08:17:10.168Z,16.70
2018-02-03T08:18:10.173Z,21.00
2018-02-03T08:19:10.184Z,19.00
2018-02-03T08:20:10.168Z,19.00
2018-02-03T08:21:10.188Z,20.90
2018-02-03T08:22:10.164Z,18.10
2018-02-03T08:23:10.165Z,19.50
2018-02-03T08:24:10.158Z,17.30
2018-02-03T08:25:10.166Z,18.50
2018-02-03T08:26:10.187Z,15.10
2018-02-03T08:27:10.167Z,16.60
2018-02-03T08:28:10.750Z,18.10
2018-02-03T08:29:10.149Z,18.00
2018-02-03T08:30:10.162Z,17.60
2018-02-03T08:31:10.169Z,20.00
2018-02-03T08:32:10.145Z,16.90
2018-02-03T08:33:10.173Z,18.10
2018-02-03T08:34:10.144Z,19.70
2018-02-03T08:35:10.147Z,19.30
2018-02-03T08:36:10.154Z,19.40
2018-02-03T08:37:10.170Z,19.60
2018-02-03T08:38:10.761Z,22.40
2018-02-03T08:39:10.168Z,19.40
2018-02-03T08:40:10.138Z,18.00
2018-02-03T08:41:10.195Z,18.20
2018-02-03T08:42:10.158Z,16.20
2018-02-03T08:43:10.122Z,15.30
2018-02-03T08:44:10.129Z,18.40
2018-02-03T08:45:10.131Z,16.90
2018-02-03T08:46:10.138Z,17.00
2018-02-03T08:47:10.160Z,21.10
2018-02-03T08:48:10.125Z,21.80
2018-02-03T08:49:10.122Z,17.80
2018-02-03T08:50:10.738Z,17.50
2018-02-03T08:51:10.198Z,17.80
2018-02-03T08:52:10.125Z,19.40
2018-02-03T08:53:10.113Z,17.70
2018-02-03T08:54:10.125Z,18.10
2018-02-03T08:55:10.111Z,23.30
2018-02-03T08:56:10.113Z,18.80
2018-02-03T08:57:10.123Z,19.60
2018-02-03T08:58:10.100Z,19.60
2018-02-03T08:59:10.109Z,16.20
2018-02-03T09:00:10.096Z,15.40
2018-02-03T09:01:10.110Z,19.10
2018-02-03T09:02:10.097Z,15.90
2018-02-03T09:03:10.110Z,16.50
2018-02-03T09:04:10.096Z,19.90
2018-02-03T09:05:10.102Z,20.20
2018-02-03T09:06:10.100Z,17.90
2018-02-03T09:07:10.757Z,19.60
2018-02-03T09:08:10.101Z,18.80
2018-02-03T09:09:10.108Z,18.80
2018-02-03T09:10:10.093Z,24.70
2018-02-03T09:11:10.137Z,15.80
2018-02-03T09:12:10.089Z,18.90
2018-02-03T09:13:10.081Z,20.30
2018-02-03T09:14:10.088Z,20.10
2018-02-03T09:15:10.084Z,19.20
2018-02-03T09:16:10.093Z,24.20
2018-02-03T09:17:10.088Z,19.00
2018-02-03T09:18:10.087Z,20.80
2018-02-03T09:19:10.073Z,15.40
2018-02-03T09:20:10.088Z,16.00
2018-02-03T09:21:10.072Z,16.80
2018-02-03T09:22:10.291Z,18.90
2018-02-03T09:23:10.077Z,17.30
2018-02-03T09:24:10.064Z,17.60
2018-02-03T09:25:10.208Z,18.50
2018-02-03T09:26:10.072Z,20.80
2018-02-03T09:27:10.081Z,21.00
2018-02-03T09:28:10.065Z,18.00
2018-02-03T09:29:10.052Z,17.50
2018-02-03T09:30:10.070Z,24.80
2018-02-03T09:31:10.063Z,16.70
2018-02-03T09:32:10.062Z,21.50
2018-02-03T09:33:10.065Z,18.00
2018-02-03T09:34:10.058Z,20.40
2018-02-03T09:35:10.144Z,21.70
2018-02-03T09:36:10.067Z,16.20
2018-02-03T09:37:10.064Z,15.90
2018-02-03T09:38:10.083Z,17.70
2018-02-03T09:39:10.051Z,16.90
2018-02-03T09:40:10.048Z,20.30
2018-02-03T09:41:10.061Z,17.50
2018-02-03T09:42:10.055Z,17.80
2018-02-03T09:43:10.169Z,16.40
2018-02-03T09:44:10.281Z,15.60
2018-02-03T09:45:10.051Z,18.30
2018-02-03T09:46:10.051Z,19.10
2018-02-03T09:47:10.051Z,21.60
2018-02-03T09:48:10.209Z,17.40
2018-02-03T09:49:10.769Z,20.60
2018-02-03T09:50:10.044Z,19.50
2018-02-03T09:51:10.035Z,15.20
2018-02-03T09:52:10.039Z,20.10
2018-02-03T09:53:10.037Z,13.90
2018-02-03T09:54:10.039Z,17.10
2018-02-03T09:55:10.089Z,18.00
2018-02-03T09:56:10.031Z,19.90
2018-02-03T09:57:10.038Z,16.50
2018-02-03T09:58:10.270Z,19.90
2018-02-03T09:59:10.025Z,16.70
2018-02-03T10:00:10.769Z,17.20
2018-02-03T10:01:10.091Z,17.00
2018-02-03T10:02:10.030Z,16.60
2018-02-03T10:03:10.036Z,20.70
2018-02-03T10:04:10.023Z,17.70
2018-02-03T10:05:10.019Z,17.50
2018-02-03T10:06:10.036Z,16.30
2018-02-03T10:07:10.030Z,16.80
2018-02-03T10:08:10.042Z,17.90
2018-02-03T10:09:10.059Z,18.00
2018-02-03T10:10:10.032Z,19.00
2018-02-03T10:11:10.039Z,21.80
2018-02-03T10:12:10.014Z,19.80
2018-02-03T10:13:10.033Z,16.20
2018-02-03T10:14:10.016Z,18.50
2018-02-03T10:15:10.010Z,18.80
2018-02-03T10:16:10.017Z,20.30
2018-02-03T10:17:10.029Z,17.50
2018-02-03T10:18:10.008Z,17.00
2018-02-03T10:19:10.034Z,16.80
2018-02-03T10:20:10.011Z,18.60
2018-02-03T10:21:10.022Z,18.70
2018-02-03T10:22:10.123Z,18.20
2018-02-03T10:23:10.022Z,18.60
2018-02-03T10:24:10.016Z,15.90
2018-02-03T10:25:10.008Z,18.10
2018-02-03T10:26:10.014Z,19.70
2018-02-03T10:27:10.007Z,17.20
2018-02-03T10:28:10.016Z,15.00
2018-02-03T10:29:10.013Z,16.80
2018-02-03T10:30:10.007Z,20.60
2018-02-03T10:31:10.014Z,15.80
2018-02-03T10:32:10.017Z,18.10
2018-02-03T10:33:10.025Z,19.60
2018-02-03T10:34:10.011Z,17.10
2018-02-03T10:35:10.007Z,18.10
2018-02-03T10:36:10.008Z,18.50
2018-02-03T10:37:10.006Z,16.10
2018-02-03T10:38:10.014Z,19.40
2018-02-03T10:39:10.000Z,17.00
2018-02-03T10:40:09.997Z,18.40
2018-02-03T10:41:10.001Z,14.10
2018-02-03T10:42:10.027Z,14.70
2018-02-03T10:43:10.002Z,14.90
2018-02-03T10:44:10.006Z,13.70
2018-02-03T10:45:10.007Z,16.90
2018-02-03T10:46:10.096Z,13.30
2018-02-03T10:47:10.134Z,15.80
2018-02-03T10:48:10.214Z,15.60
2018-02-03T10:49:10.002Z,14.90
2018-02-03T10:50:10.011Z,16.30
2018-02-03T10:51:10.031Z,13.50
2018-02-03T10:52:10.022Z,13.20
2018-02-03T10:53:10.019Z,15.90
2018-02-03T10:54:10.038Z,15.10
2018-02-03T10:55:10.119Z,15.00
2018-02-03T10:56:10.030Z,13.30
2018-02-03T10:57:10.087Z,14.40
2018-02-03T10:58:10.034Z,12.50
2018-02-03T10:59:10.026Z,16.20
2018-02-03T11:00:10.017Z,17.90
2018-02-03T11:01:10.041Z,11.30
2018-02-03T11:02:10.042Z,13.90
2018-02-03T11:03:10.023Z,12.50
2018-02-03T11:04:10.027Z,12.70
2018-02-03T11:05:10.024Z,12.80
2018-02-03T11:06:10.025Z,11.60
2018-02-03T11:07:10.035Z,11.00
2018-02-03T11:08:10.138Z,13.10
2018-02-03T11:09:10.035Z,11.10
2018-02-03T11:10:10.038Z,12.50
2018-02-03T11:11:10.049Z,8.80
2018-02-03T11:12:10.228Z,13.30
2018-02-03T11:13:10.043Z,10.50
2018-02-03T11:14:10.046Z,11.30
2018-02-03T11:15:10.046Z,9.90
2018-02-03T11:16:10.053Z,11.10
2018-02-03T11:17:10.055Z,11.60
2018-02-03T11:18:10.071Z,12.70
2018-02-03T11:19:10.074Z,10.40
2018-02-03T11:20:10.052Z,12.30
2018-02-03T11:21:10.065Z,14.20
2018-02-03T11:22:10.087Z,12.30
2018-02-03T11:23:10.064Z,15.50
2018-02-03T11:24:10.070Z,11.80
2018-02-03T11:25:10.072Z,11.40
2018-02-03T11:26:10.081Z,12.00
2018-02-03T11:27:10.080Z,10.70
2018-02-03T11:28:10.083Z,12.00
2018-02-03T11:29:10.081Z,11.70
2018-02-03T11:30:10.106Z,11.50
2018-02-03T11:31:10.113Z,10.30
2018-02-03T11:32:10.088Z,12.60
2018-02-03T11:33:10.106Z,11.60
2018-02-03T11:34:10.091Z,9.70
2018-02-03T11:35:10.133Z,11.90
2018-02-03T11:36:10.802Z,10.60
2018-02-03T11:37:10.108Z,15.10
2018-02-03T11:38:10.100Z,12.00
2018-02-03T11:39:10.114Z,11.20
2018-02-03T11:40:10.123Z,10.40
2018-02-03T11:41:10.115Z,12.80
2018-02-03T11:42:10.112Z,12.20
2018-02-03T11:43:10.126Z,11.10
2018-02-03T11:44:10.128Z,11.60
2018-02-03T11:45:10.120Z,12.10
2018-02-03T11:46:10.138Z,13.00
2018-02-03T11:47:10.137Z,11.80
2018-02-03T11:48:10.138Z,12.00
2018-02-03T11:49:10.146Z,13.10
2018-02-03T11:50:10.135Z,14.50
2018-02-03T11:51:10.144Z,11.60
2018-02-03T11:52:10.146Z,12.00
2018-02-03T11:53:10.298Z,12.90
2018-02-03T11:54:10.147Z,12.50
2018-02-03T11:55:10.145Z,11.60
2018-02-03T11:56:10.181Z,11.00
2018-02-03T11:57:10.157Z,10.40
2018-02-03T11:58:10.164Z,14.30
2018-02-03T11:59:10.802Z,12.10
2018-02-03T12:00:10.158Z,11.60
2018-02-03T12:01:10.187Z,12.80
2018-02-03T12:02:10.160Z,9.00
2018-02-03T12:03:10.164Z,12.30
2018-02-03T12:04:10.251Z,12.40
2018-02-03T12:05:10.168Z,11.40
2018-02-03T12:06:10.221Z,11.60
2018-02-03T12:07:10.176Z,10.70
2018-02-03T12:08:10.181Z,10.50
2018-02-03T12:09:10.188Z,14.00
2018-02-03T12:10:10.192Z,9.90
2018-02-03T12:11:10.243Z,11.10
2018-02-03T12:12:10.203Z,9.90
2018-02-03T12:13:10.193Z,11.00
2018-02-03T12:14:10.193Z,10.50
2018-02-03T12:15:10.205Z,10.50
2018-02-03T12:16:10.211Z,10.60
2018-02-03T12:17:10.355Z,11.20
2018-02-03T12:18:10.217Z,11.40
2018-02-03T12:19:10.214Z,10.00
2018-02-03T12:20:10.217Z,13.10
2018-02-03T12:21:10.229Z,14.80
2018-02-03T12:22:10.232Z,12.70
2018-02-03T12:23:10.221Z,11.40
2018-02-03T12:24:10.227Z,11.30
2018-02-03T12:25:10.363Z,9.00
2018-02-03T12:26:10.293Z,11.10
2018-02-03T12:27:10.253Z,11.50
2018-02-03T12:28:10.240Z,12.70
2018-02-03T12:29:10.257Z,14.90
2018-02-03T12:30:10.346Z,13.90
2018-02-03T12:31:10.259Z,10.60
2018-02-03T12:32:10.247Z,11.40
2018-02-03T12:33:10.257Z,11.40
2018-02-03T12:34:10.266Z,13.10
2018-02-03T12:35:10.253Z,12.30
2018-02-03T12:36:10.256Z,11.40
2018-02-03T12:37:10.262Z,14.80
2018-02-03T12:38:10.262Z,12.60
2018-02-03T12:39:10.265Z,13.80
2018-02-03T12:40:10.254Z,12.30
2018-02-03T12:41:10.265Z,17.80
2018-02-03T12:42:10.819Z,10.90
2018-02-03T12:43:10.266Z,14.40
2018-02-03T12:44:10.266Z,16.80
2018-02-03T12:45:10.362Z,15.30
2018-02-03T12:46:10.261Z,12.40
2018-02-03T12:47:10.276Z,13.20
2018-02-03T12:48:10.290Z,15.20
2018-02-03T12:49:10.274Z,15.70
2018-02-03T12:50:10.276Z,16.40
2018-02-03T12:51:10.310Z,15.60
2018-02-03T12:52:10.280Z,15.90
2018-02-03T12:53:10.270Z,13.30